Time;durP1;ratioP1;P1;durP2;ratioP2;P2;SDS_P1;SDS_P2;PMS_P1;PMS_P2;Temp;Humidity;BMP_temperature;BMP_pressure;BME280_temperature;BME280_humidity;BME280_pressure;Samples;Min_cycle;Max_cycle;Signal;HPM_P1;HPM_P2
2024/01/25 00:00:06;;;;;;;95.88;46.70;;;13.10;99.90;;;;;;5064706;28;20496;-63
2024/01/25 00:02:32;;;;;;;88.07;46.05;;;13.30;99.90;;;;;;5065186;28;20083;-63
2024/01/25 00:04:57;;;;;;;93.13;46.55;;;13.40;99.90;;;;;;5065010;28;20097;-63
2024/01/25 00:07:23;;;;;;;82.15;45.55;;;13.10;99.90;;;;;;5064963;28;20754;-63
2024/01/25 00:09:48;;;;;;;62.40;34.78;;;13.70;99.90;;;;;;5064464;28;20056;-62
2024/01/25 00:12:14;;;;;;;96.55;48.17;;;13.70;99.90;;;;;;5064439;28;20040;-63
2024/01/25 00:14:39;;;;;;;103.80;48.03;;;13.70;99.90;;;;;;5064984;28;20052;-63
2024/01/25 00:17:05;;;;;;;96.88;51.70;;;13.60;99.90;;;;;;5064829;28;20048;-63
2024/01/25 00:19:31;;;;;;;102.13;49.88;;;12.90;99.90;;;;;;5046645;28;20094;-64
2024/01/25 00:21:56;;;;;;;101.03;50.10;;;13.50;99.90;;;;;;5065147;28;20102;-63
2024/01/25 00:24:22;;;;;;;109.80;53.38;;;13.10;99.90;;;;;;5064470;28;20048;-65
2024/01/25 00:26:48;;;;;;;95.80;51.55;;;12.90;99.90;;;;;;5064386;28;20044;-65
2024/01/25 00:29:15;;;;;;;97.22;52.58;;;13.20;99.90;;;;;;5064532;28;20534;-65
2024/01/25 00:31:40;;;;;;;95.78;50.08;;;13.20;99.90;;;;;;5064565;28;20052;-65
2024/01/25 00:34:06;;;;;;;103.43;51.03;;;12.80;99.90;;;;;;5064464;28;20066;-65
2024/01/25 00:36:32;;;;;;;101.18;53.22;;;12.80;99.90;;;;;;5063891;28;20132;-65
2024/01/25 00:38:58;;;;;;;103.03;51.40;;;13.60;99.90;;;;;;5064773;28;20041;-65
2024/01/25 00:41:24;;;;;;;103.78;50.08;;;12.80;99.90;;;;;;5064698;28;20036;-66
2024/01/25 00:43:50;;;;;;;107.15;49.70;;;12.80;99.90;;;;;;5064298;28;20040;-65
2024/01/25 00:46:15;;;;;;;100.90;48.85;;;12.90;99.90;;;;;;5064428;28;20137;-65
2024/01/25 00:48:42;;;;;;;96.85;48.45;;;12.90;99.90;;;;;;5064469;28;20548;-65
2024/01/25 00:51:15;;;;;;;99.70;52.03;;;13.60;99.90;;;;;;5064300;28;20037;-65
2024/01/25 00:53:41;;;;;;;112.82;51.97;;;12.80;99.90;;;;;;5068218;28;20097;-65
2024/01/25 00:56:07;;;;;;;73.90;39.35;;;13.50;99.90;;;;;;5068577;28;20409;-65
2024/01/25 00:58:33;;;;;;;98.07;51.05;;;13.50;99.90;;;;;;5068234;28;20082;-65
2024/01/25 01:00:59;;;;;;;99.15;53.70;;;13.10;99.90;;;;;;5067408;28;20048;-66
2024/01/25 01:03:24;;;;;;;106.72;52.35;;;13.20;99.90;;;;;;5067399;28;20055;-65
2024/01/25 01:05:50;;;;;;;115.55;52.05;;;12.90;99.90;;;;;;5067463;28;20040;-65
2024/01/25 01:08:16;;;;;;;103.03;50.40;;;13.30;99.90;;;;;;5049864;28;20044;-65
2024/01/25 01:10:42;;;;;;;107.20;52.55;;;12.80;99.90;;;;;;5049718;28;20052;-65
2024/01/25 01:13:07;;;;;;;100.78;51.25;;;13.30;99.90;;;;;;5067412;28;20032;-65
2024/01/25 01:15:33;;;;;;;78.95;39.40;;;14.10;99.90;;;;;;5067257;28;20044;-65
2024/01/25 01:17:58;;;;;;;114.88;51.00;;;13.40;99.90;;;;;;5067546;28;20500;-65
2024/01/25 01:20:24;;;;;;;70.20;37.42;;;12.70;99.90;;;;;;5067677;28;20119;-65
2024/01/25 01:22:52;;;;;;;107.13;49.97;;;12.70;99.90;;;;;;5067656;28;20076;-65
2024/01/25 01:25:17;;;;;;;98.47;52.53;;;12.80;99.90;;;;;;5067351;28;20052;-65
2024/01/25 01:27:43;;;;;;;100.22;50.47;;;13.30;99.90;;;;;;5067238;28;20040;-65
2024/01/25 01:30:09;;;;;;;110.82;53.10;;;12.70;99.90;;;;;;5067022;28;20413;-65
2024/01/25 01:32:35;;;;;;;99.68;52.00;;;12.70;99.90;;;;;;5067589;28;20206;-65
2024/01/25 01:35:00;;;;;;;110.70;51.80;;;12.80;99.90;;;;;;5066204;28;20492;-65
2024/01/25 01:37:26;;;;;;;105.85;52.22;;;12.70;99.90;;;;;;5066972;28;20051;-65
2024/01/25 01:39:52;;;;;;;85.65;42.30;;;13.50;99.90;;;;;;5067591;28;20101;-65
2024/01/25 01:42:18;;;;;;;113.47;55.20;;;12.70;99.90;;;;;;5067946;28;20040;-65
2024/01/25 01:44:43;;;;;;;78.97;40.50;;;13.30;99.90;;;;;;5067211;28;20056;-64
2024/01/25 01:47:09;;;;;;;102.00;54.03;;;13.20;99.90;;;;;;5067083;28;20040;-63
2024/01/25 01:49:35;;;;;;;75.55;42.08;;;13.20;99.90;;;;;;5067601;28;20128;-63
2024/01/25 01:52:02;;;;;;;98.32;54.10;;;13.40;99.90;;;;;;5066954;28;20036;-66
2024/01/25 01:54:27;;;;;;;105.88;54.95;;;12.70;99.90;;;;;;5048784;28;20033;-66
2024/01/25 01:56:53;;;;;;;106.65;54.50;;;13.30;99.90;;;;;;5049189;28;20424;-67
2024/01/25 01:59:20;;;;;;;106.97;55.15;;;12.60;99.90;;;;;;5048875;28;20036;-67
2024/01/25 02:01:46;;;;;;;92.38;42.60;;;12.80;99.90;;;;;;5046827;28;20044;-66
2024/01/25 02:04:11;;;;;;;99.75;53.63;;;13.20;99.90;;;;;;5047391;28;20532;-66
2024/01/25 02:06:37;;;;;;;109.40;56.10;;;13.30;99.90;;;;;;5047841;28;20037;-67
2024/01/25 02:09:03;;;;;;;110.07;54.05;;;12.80;99.90;;;;;;5048106;28;20119;-67
2024/01/25 02:11:28;;;;;;;76.70;40.72;;;13.00;99.90;;;;;;5066165;28;20123;-67
2024/01/25 02:13:55;;;;;;;112.28;51.60;;;12.80;99.90;;;;;;5048245;28;20040;-67
2024/01/25 02:16:20;;;;;;;75.85;40.83;;;12.80;99.90;;;;;;5050725;28;20048;-67
2024/01/25 02:18:47;;;;;;;99.20;49.08;;;12.40;99.90;;;;;;5043754;28;20532;-68
2024/01/25 02:21:12;;;;;;;108.60;52.83;;;12.90;99.90;;;;;;5046178;28;20477;-68
2024/01/25 02:23:38;;;;;;;88.72;40.92;;;12.40;99.90;;;;;;5043064;28;20040;-68
2024/01/25 02:26:04;;;;;;;83.72;38.65;;;12.80;99.90;;;;;;5065345;28;20032;-67
2024/01/25 02:28:29;;;;;;;107.72;51.88;;;12.40;99.90;;;;;;5047783;28;20052;-66
2024/01/25 02:30:55;;;;;;;124.40;53.63;;;12.40;99.90;;;;;;5065998;28;20045;-66
2024/01/25 02:33:20;;;;;;;112.78;57.88;;;13.10;99.90;;;;;;5065161;28;20040;-66
2024/01/25 02:35:46;;;;;;;110.93;53.85;;;13.40;99.90;;;;;;5047320;28;20139;-67
2024/01/25 02:38:12;;;;;;;110.22;54.45;;;12.50;99.90;;;;;;5046536;28;20064;-67
2024/01/25 02:40:37;;;;;;;106.35;51.85;;;12.40;99.90;;;;;;5034069;28;20511;-68
2024/01/25 02:43:03;;;;;;;102.35;54.58;;;12.40;99.90;;;;;;5065889;28;20045;-68
2024/01/25 02:45:28;;;;;;;107.32;57.17;;;12.90;99.90;;;;;;5030336;28;20072;-67
2024/01/25 02:47:54;;;;;;;107.00;55.85;;;12.40;99.90;;;;;;5047410;28;20075;-67
2024/01/25 02:50:20;;;;;;;87.00;40.47;;;13.10;99.90;;;;;;5047247;28;20036;-67
2024/01/25 02:52:45;;;;;;;112.50;55.67;;;13.10;99.90;;;;;;5047456;28;20040;-68
2024/01/25 02:55:11;;;;;;;106.60;53.40;;;13.10;99.90;;;;;;5047533;28;20059;-68
2024/01/25 02:57:36;;;;;;;88.30;41.17;;;12.30;99.90;;;;;;5065814;28;20127;-68
2024/01/25 03:00:03;;;;;;;109.93;54.70;;;14.40;99.90;;;;;;5061935;28;20509;-68
2024/01/25 03:02:28;;;;;;;119.10;55.28;;;13.10;99.90;;;;;;5047808;28;20489;-67
2024/01/25 03:04:54;;;;;;;102.57;54.78;;;12.40;99.90;;;;;;5030672;28;20059;-67
2024/01/25 03:07:20;;;;;;;120.10;56.22;;;13.00;99.90;;;;;;5047576;28;20048;-67
2024/01/25 03:09:45;;;;;;;107.10;59.30;;;12.40;99.90;;;;;;5045914;28;20076;-68
2024/01/25 03:12:11;;;;;;;106.63;57.22;;;12.90;99.90;;;;;;5046392;28;20119;-67
2024/01/25 03:14:36;;;;;;;118.40;55.72;;;12.90;99.90;;;;;;5030860;28;20048;-66
2024/01/25 03:17:02;;;;;;;106.05;55.15;;;12.20;99.90;;;;;;5047666;28;20048;-66
2024/01/25 03:19:28;;;;;;;109.43;55.25;;;12.50;99.90;;;;;;5046793;28;20036;-67
2024/01/25 03:21:56;;;;;;;88.30;44.58;;;12.80;99.90;;;;;;5045543;28;20041;-66
2024/01/25 03:24:22;;;;;;;88.43;44.60;;;12.50;99.90;;;;;;5045672;28;20512;-67
2024/01/25 03:26:48;;;;;;;113.10;56.45;;;13.30;99.90;;;;;;5028044;28;20044;-66
2024/01/25 03:29:14;;;;;;;110.93;58.08;;;12.20;99.90;;;;;;5054461;28;20139;-67
2024/01/25 03:31:39;;;;;;;112.32;58.80;;;12.30;1.00;;;;;;5034786;28;20143;-66
2024/01/25 03:34:05;;;;;;;117.22;56.72;;;12.30;1.00;;;;;;5047009;28;20359;-67
2024/01/25 03:36:31;;;;;;;111.60;61.75;;;12.30;1.00;;;;;;5065530;28;20545;-66
2024/01/25 03:38:57;;;;;;;112.45;56.38;;;12.70;1.00;;;;;;5066121;28;20386;-67
2024/01/25 03:41:23;;;;;;;95.15;42.80;;;12.80;1.00;;;;;;5045508;28;20071;-67
2024/01/25 03:43:49;;;;;;;107.22;58.72;;;12.80;1.00;;;;;;5046874;28;20044;-67
2024/01/25 03:46:14;;;;;;;112.38;58.65;;;12.20;1.00;;;;;;5065354;28;20121;-66
2024/01/25 03:48:40;;;;;;;113.10;60.40;;;12.30;1.00;;;;;;5046636;28;20603;-65
2024/01/25 03:51:06;;;;;;;112.55;57.88;;;12.90;1.00;;;;;;5064624;28;20095;-66
2024/01/25 03:53:32;;;;;;;114.55;58.58;;;12.50;1.00;;;;;;5065088;28;20045;-66
2024/01/25 03:55:57;;;;;;;118.20;58.20;;;12.60;1.00;;;;;;5046498;28;20075;-66
2024/01/25 03:58:23;;;;;;;102.60;46.15;;;12.90;1.00;;;;;;5065184;28;20036;-67
2024/01/25 04:00:48;;;;;;;120.45;55.25;;;12.80;1.00;;;;;;5057447;28;20041;-67
2024/01/25 04:03:14;;;;;;;108.13;57.45;;;12.10;1.00;;;;;;5057869;28;20040;-66
2024/01/25 04:05:39;;;;;;;79.70;43.63;;;12.90;1.00;;;;;;5065041;28;20132;-66
2024/01/25 04:08:06;;;;;;;112.75;58.53;;;12.20;1.00;;;;;;5065211;28;20049;-67
2024/01/25 04:10:31;;;;;;;90.70;44.00;;;12.20;1.00;;;;;;5057657;28;20082;-67
2024/01/25 04:12:57;;;;;;;106.55;55.58;;;12.20;1.00;;;;;;5044912;28;20041;-67
2024/01/25 04:15:23;;;;;;;113.28;57.13;;;12.20;1.00;;;;;;5035741;28;20052;-68
2024/01/25 04:17:49;;;;;;;122.75;60.28;;;12.20;1.00;;;;;;5047395;28;20140;-66
2024/01/25 04:20:15;;;;;;;116.75;54.15;;;12.60;1.00;;;;;;5046028;28;20028;-66
2024/01/25 04:22:41;;;;;;;116.20;55.47;;;12.70;1.00;;;;;;5064822;28;20032;-68
2024/01/25 04:25:07;;;;;;;111.97;58.10;;;12.00;1.00;;;;;;5064957;28;20052;-66
2024/01/25 04:27:32;;;;;;;100.43;45.50;;;12.70;1.00;;;;;;5067094;28;20052;-66
2024/01/25 04:29:58;;;;;;;112.72;57.13;;;12.70;1.00;;;;;;5049915;28;20478;-68
2024/01/25 04:32:23;;;;;;;113.20;58.05;;;12.80;1.00;;;;;;5050540;28;20064;-66
2024/01/25 04:34:49;;;;;;;76.88;44.28;;;12.70;1.00;;;;;;5050242;28;20515;-67
2024/01/25 04:37:15;;;;;;;129.95;58.75;;;12.80;1.00;;;;;;5067023;28;20143;-66
2024/01/25 04:39:41;;;;;;;115.38;59.38;;;12.50;1.00;;;;;;5050679;28;20040;-66
2024/01/25 04:42:07;;;;;;;120.93;60.38;;;12.80;1.00;;;;;;5068720;28;20110;-67
2024/01/25 04:44:33;;;;;;;67.18;41.70;;;12.30;1.00;;;;;;5068223;28;20523;-66
2024/01/25 04:46:58;;;;;;;85.22;43.95;;;12.40;1.00;;;;;;5050328;28;20045;-67
2024/01/25 04:49:24;;;;;;;106.03;53.90;;;12.80;1.00;;;;;;5049767;28;20424;-68
2024/01/25 04:51:50;;;;;;;78.00;42.33;;;12.90;1.00;;;;;;5017958;28;20485;-67
2024/01/25 04:54:16;;;;;;;103.35;56.08;;;12.70;1.00;;;;;;5048989;28;20045;-67
2024/01/25 04:56:42;;;;;;;105.15;54.65;;;12.80;1.00;;;;;;5050117;28;20036;-67
2024/01/25 04:59:08;;;;;;;91.72;44.38;;;12.60;1.00;;;;;;5050202;28;20131;-67
2024/01/25 05:01:33;;;;;;;115.00;57.38;;;12.00;1.00;;;;;;5043352;28;20127;-67
2024/01/25 05:03:59;;;;;;;122.50;59.17;;;12.60;1.00;;;;;;5050537;28;20064;-67
2024/01/25 05:06:25;;;;;;;110.60;58.65;;;12.40;1.00;;;;;;5049804;28;20152;-67
2024/01/25 05:08:51;;;;;;;118.40;55.45;;;12.10;1.00;;;;;;5068124;28;20066;-67
2024/01/25 05:11:16;;;;;;;89.18;43.58;;;12.00;1.00;;;;;;5047121;28;20576;-68
2024/01/25 05:13:42;;;;;;;118.35;57.75;;;14.70;1.00;;;;;;5037063;28;20041;-69
2024/01/25 05:16:08;;;;;;;119.40;59.55;;;12.10;1.00;;;;;;5036593;28;20041;-69
2024/01/25 05:18:33;;;;;;;118.97;56.03;;;12.80;1.00;;;;;;5049668;28;20039;-69
2024/01/25 05:20:59;;;;;;;105.63;45.15;;;12.70;1.00;;;;;;5045038;28;20490;-70
2024/01/25 05:23:24;;;;;;;115.22;58.85;;;12.10;1.00;;;;;;5029530;28;20044;-69
2024/01/25 05:25:50;;;;;;;120.85;57.35;;;12.20;1.00;;;;;;5029958;28;20045;-70
2024/01/25 05:28:15;;;;;;;111.03;51.97;;;12.60;1.00;;;;;;5029085;28;20270;-70
2024/01/25 05:30:41;;;;;;;125.32;56.85;;;12.90;1.00;;;;;;5032394;28;20036;-70
2024/01/25 05:33:06;;;;;;;99.00;45.38;;;12.40;1.00;;;;;;5043524;28;20048;-70
2024/01/25 05:35:34;;;;;;;117.63;54.30;;;12.20;1.00;;;;;;5065882;28;20041;-69
2024/01/25 05:38:00;;;;;;;120.55;55.65;;;11.90;1.00;;;;;;5037643;28;20057;-69
2024/01/25 05:40:25;;;;;;;105.68;44.55;;;12.20;1.00;;;;;;5028855;28;20052;-70
2024/01/25 05:42:51;;;;;;;125.68;59.10;;;11.90;1.00;;;;;;5048107;28;20052;-69
2024/01/25 05:45:19;;;;;;;121.10;54.50;;;13.00;1.00;;;;;;5049315;28;20040;-70
2024/01/25 05:47:45;;;;;;;87.85;44.55;;;12.30;1.00;;;;;;5048469;28;20146;-70
2024/01/25 05:50:11;;;;;;;127.78;56.28;;;12.30;1.00;;;;;;5064837;28;20155;-69
2024/01/25 05:52:39;;;;;;;116.45;57.45;;;12.20;1.00;;;;;;5056231;28;20048;-70
2024/01/25 05:55:05;;;;;;;116.47;54.80;;;12.40;1.00;;;;;;5065358;28;20139;-69
2024/01/25 05:57:32;;;;;;;92.32;43.83;;;11.90;5.10;;;;;;5066495;28;20032;-70
2024/01/25 05:59:58;;;;;;;136.30;60.90;;;12.50;8.20;;;;;;5048492;28;20447;-69
2024/01/25 06:02:23;;;;;;;117.78;59.83;;;12.70;12.50;;;;;;5047895;28;20040;-70
2024/01/25 06:04:49;;;;;;;101.95;44.53;;;12.70;25.80;;;;;;5047998;28;20609;-70
2024/01/25 06:07:14;;;;;;;133.55;58.05;;;11.90;43.30;;;;;;5065159;28;20099;-70
2024/01/25 06:09:40;;;;;;;100.57;46.58;;;11.90;52.00;;;;;;5065065;28;20468;-71
2024/01/25 06:12:06;;;;;;;123.57;59.05;;;12.40;58.70;;;;;;5055003;28;20515;-70
2024/01/25 06:14:32;;;;;;;113.97;47.78;;;11.90;69.60;;;;;;5034032;28;20048;-66
2024/01/25 06:16:57;;;;;;;117.75;55.58;;;12.40;88.40;;;;;;5065969;28;20510;-66
2024/01/25 06:19:23;;;;;;;106.07;44.50;;;12.10;88.60;;;;;;5066561;28;20486;-66
2024/01/25 06:21:49;;;;;;;110.80;52.47;;;11.90;86.50;;;;;;5058419;28;20573;-66
2024/01/25 06:24:15;;;;;;;133.25;55.60;;;12.40;88.80;;;;;;5066489;28;20032;-65
2024/01/25 06:26:41;;;;;;;118.50;53.42;;;11.80;98.10;;;;;;5066243;28;20098;-63
2024/01/25 06:29:06;;;;;;;116.85;53.53;;;11.90;97.20;;;;;;5062790;28;20500;-64
2024/01/25 06:31:32;;;;;;;102.53;43.75;;;11.80;99.90;;;;;;5055260;28;20041;-64
2024/01/25 06:33:57;;;;;;;141.32;54.00;;;11.80;97.20;;;;;;5047506;28;20047;-64
2024/01/25 06:36:23;;;;;;;105.05;44.85;;;12.00;97.80;;;;;;5065478;28;20132;-63
2024/01/25 06:38:49;;;;;;;129.05;55.75;;;11.70;99.90;;;;;;5065928;28;20055;-64
2024/01/25 06:41:16;;;;;;;119.68;55.35;;;11.80;99.90;;;;;;5061118;28;20585;-64
2024/01/25 06:43:41;;;;;;;113.90;44.88;;;12.40;99.90;;;;;;5045731;28;20041;-64
2024/01/25 06:46:07;;;;;;;103.38;45.00;;;11.70;99.90;;;;;;5046336;28;20044;-65
2024/01/25 06:48:33;;;;;;;121.03;55.88;;;12.40;99.90;;;;;;5065591;28;20123;-65
2024/01/25 06:51:00;;;;;;;105.13;46.60;;;12.40;99.90;;;;;;5063042;28;20043;-64
2024/01/25 06:53:26;;;;;;;117.55;46.35;;;11.70;99.90;;;;;;5061001;28;20051;-64
2024/01/25 06:55:52;;;;;;;120.43;46.50;;;12.30;99.90;;;;;;5065284;28;20037;-64
2024/01/25 06:58:18;;;;;;;121.22;54.65;;;11.60;99.90;;;;;;5065037;28;20044;-64
2024/01/25 07:00:45;;;;;;;124.57;53.47;;;12.30;99.90;;;;;;5065894;28;20046;-64
2024/01/25 07:03:10;;;;;;;111.32;52.88;;;12.10;99.90;;;;;;5064843;28;20040;-63
2024/01/25 07:05:36;;;;;;;119.28;55.70;;;12.20;99.90;;;;;;5065470;28;20040;-64
2024/01/25 07:08:02;;;;;;;105.13;45.22;;;11.80;99.90;;;;;;5054150;28;20123;-64
2024/01/25 07:10:28;;;;;;;103.80;45.60;;;12.40;99.90;;;;;;5065978;28;20086;-63
2024/01/25 07:12:53;;;;;;;102.45;45.85;;;11.60;99.90;;;;;;5057923;28;20072;-64
2024/01/25 07:15:19;;;;;;;106.53;44.50;;;12.30;99.90;;;;;;5060236;28;20087;-64
2024/01/25 07:17:45;;;;;;;130.02;54.63;;;12.40;99.90;;;;;;5064104;28;20044;-63
2024/01/25 07:20:11;;;;;;;115.65;56.08;;;12.20;99.90;;;;;;5064142;28;20047;-61
2024/01/25 07:22:36;;;;;;;120.03;53.58;;;11.90;99.90;;;;;;5064998;28;20043;-64
2024/01/25 07:25:02;;;;;;;119.18;55.47;;;12.10;99.90;;;;;;5065449;28;20053;-63
2024/01/25 07:27:28;;;;;;;115.13;53.80;;;12.20;99.90;;;;;;5066045;28;20063;-64
2024/01/25 07:29:53;;;;;;;101.15;43.83;;;11.90;99.90;;;;;;5066441;28;20493;-64
2024/01/25 07:32:19;;;;;;;95.20;43.85;;;11.70;99.90;;;;;;5046775;28;20174;-64
2024/01/25 07:34:45;;;;;;;111.93;44.58;;;12.30;99.90;;;;;;5064644;28;20056;-65
2024/01/25 07:37:11;;;;;;;110.85;50.25;;;11.70;99.90;;;;;;5043707;28;20205;-65
2024/01/25 07:39:37;;;;;;;102.50;52.22;;;12.10;99.90;;;;;;5061626;28;20037;-66
2024/01/25 07:42:03;;;;;;;125.72;53.45;;;11.70;99.90;;;;;;5061277;28;20048;-66
2024/01/25 07:44:28;;;;;;;115.63;42.63;;;12.40;99.90;;;;;;5064551;28;20052;-64
2024/01/25 07:46:54;;;;;;;87.43;43.80;;;12.00;99.90;;;;;;5063412;28;20037;-65
2024/01/25 07:49:20;;;;;;;145.70;52.53;;;11.80;99.90;;;;;;5062941;28;20123;-64
2024/01/25 07:51:46;;;;;;;132.43;51.90;;;11.70;99.90;;;;;;5056306;28;20201;-63
2024/01/25 07:54:12;;;;;;;97.38;41.67;;;12.40;99.90;;;;;;5061787;28;20452;-66
2024/01/25 07:56:37;;;;;;;123.75;52.35;;;12.40;99.90;;;;;;5045757;28;20051;-66
2024/01/25 07:59:03;;;;;;;115.53;52.25;;;12.40;99.90;;;;;;5045797;28;20051;-66
2024/01/25 08:01:29;;;;;;;118.38;51.85;;;12.00;99.90;;;;;;5046151;28;20075;-65
2024/01/25 08:03:55;;;;;;;100.35;50.20;;;12.40;99.90;;;;;;5050904;28;20040;-65
2024/01/25 08:06:21;;;;;;;90.68;43.08;;;12.30;99.90;;;;;;5067551;28;20040;-66
2024/01/25 08:08:46;;;;;;;115.10;51.58;;;12.20;99.90;;;;;;5068220;28;20738;-66
2024/01/25 08:11:12;;;;;;;97.40;44.50;;;12.20;99.90;;;;;;5049433;28;20044;-65
2024/01/25 08:13:37;;;;;;;88.85;39.75;;;11.50;99.90;;;;;;5065991;28;20045;-66
2024/01/25 08:16:03;;;;;;;123.72;50.33;;;12.20;99.90;;;;;;5049609;28;20087;-66
2024/01/25 08:18:29;;;;;;;129.60;50.08;;;12.10;99.90;;;;;;5067260;28;20094;-66
2024/01/25 08:20:56;;;;;;;105.13;41.65;;;11.60;99.90;;;;;;5065143;28;20125;-66
2024/01/25 08:23:21;;;;;;;116.65;49.50;;;12.00;99.90;;;;;;5063938;28;20229;-66
2024/01/25 08:25:47;;;;;;;101.82;41.25;;;12.10;99.90;;;;;;5067615;28;20044;-66
2024/01/25 08:28:13;;;;;;;115.05;45.97;;;11.40;99.90;;;;;;5067012;28;20068;-66
2024/01/25 08:30:38;;;;;;;112.57;47.80;;;11.70;99.90;;;;;;5067226;28;20028;-66
2024/01/25 08:33:04;;;;;;;108.03;46.20;;;11.50;99.90;;;;;;5050365;28;20093;-66
2024/01/25 08:35:32;;;;;;;112.85;51.33;;;10.60;99.90;;;;;;5067569;28;20119;-65
2024/01/25 08:37:58;;;;;;;117.82;54.42;;;10.40;99.90;;;;;;5068024;28;20084;-66
2024/01/25 08:40:24;;;;;;;116.75;51.83;;;11.30;99.90;;;;;;5066236;28;20141;-66
2024/01/25 08:42:49;;;;;;;126.20;45.80;;;11.70;99.90;;;;;;5067866;28;20119;-66
2024/01/25 08:45:15;;;;;;;112.05;53.38;;;11.30;99.90;;;;;;5066766;28;20048;-66
2024/01/25 08:47:40;;;;;;;148.70;56.50;;;11.90;99.90;;;;;;5049925;28;20046;-66
2024/01/25 08:50:10;;;;;;;122.55;55.08;;;13.00;99.90;;;;;;5065657;28;20073;-66
2024/01/25 08:52:37;;;;;;;114.00;54.85;;;11.50;99.90;;;;;;5050009;28;20056;-66
2024/01/25 08:55:05;;;;;;;117.88;50.85;;;12.10;99.90;;;;;;5064878;28;20048;-65
2024/01/25 08:57:31;;;;;;;115.45;52.78;;;11.70;99.90;;;;;;5067494;28;20812;-66
2024/01/25 08:59:58;;;;;;;116.10;52.70;;;11.90;99.90;;;;;;5062923;28;20036;-66
2024/01/25 09:02:26;;;;;;;119.43;54.20;;;11.90;99.90;;;;;;5061817;28;20108;-66
2024/01/25 09:04:53;;;;;;;109.47;54.50;;;12.00;99.90;;;;;;5063816;28;20044;-66
2024/01/25 09:07:19;;;;;;;99.45;44.70;;;12.70;99.90;;;;;;5068175;28;20037;-66
2024/01/25 09:09:45;;;;;;;98.78;50.72;;;12.40;99.90;;;;;;5065749;28;20045;-66
2024/01/25 09:12:12;;;;;;;111.45;53.67;;;12.50;99.90;;;;;;5067493;28;20516;-66
2024/01/25 09:14:38;;;;;;;116.85;51.58;;;12.00;99.90;;;;;;5065160;28;20093;-66
2024/01/25 09:17:04;;;;;;;110.03;53.33;;;12.10;99.90;;;;;;5066258;28;20036;-66
2024/01/25 09:19:30;;;;;;;106.85;52.53;;;12.00;99.90;;;;;;5064741;28;20040;-66
2024/01/25 09:21:58;;;;;;;112.97;55.38;;;12.70;99.90;;;;;;5048759;28;20055;-66
2024/01/25 09:24:23;;;;;;;133.35;54.95;;;12.10;99.90;;;;;;5049219;28;20059;-66
2024/01/25 09:26:49;;;;;;;94.80;46.47;;;12.80;99.90;;;;;;5063060;28;20044;-66
2024/01/25 09:29:14;;;;;;;106.78;54.28;;;12.10;99.90;;;;;;5064766;28;20036;-66
2024/01/25 09:31:40;;;;;;;109.30;53.58;;;12.40;99.90;;;;;;5066785;28;20036;-66
2024/01/25 09:34:06;;;;;;;106.80;44.63;;;12.40;99.90;;;;;;5065438;28;20047;-66
2024/01/25 09:36:32;;;;;;;115.88;53.42;;;12.50;99.90;;;;;;5067851;28;20156;-66
2024/01/25 09:38:57;;;;;;;125.00;54.40;;;12.70;99.90;;;;;;5066542;28;20123;-66
2024/01/25 09:41:23;;;;;;;113.35;52.83;;;12.20;99.90;;;;;;5069927;28;20094;-66
2024/01/25 09:43:50;;;;;;;125.65;49.95;;;12.80;99.90;;;;;;5066212;28;20560;-66
2024/01/25 09:46:16;;;;;;;124.72;55.70;;;13.60;99.90;;;;;;5068029;28;20135;-66
2024/01/25 09:48:45;;;;;;;116.53;54.65;;;12.90;99.90;;;;;;5064568;28;20543;-66
2024/01/25 09:51:12;;;;;;;111.30;53.63;;;12.40;99.90;;;;;;5067613;28;20498;-66
2024/01/25 09:53:40;;;;;;;123.72;52.42;;;12.80;99.90;;;;;;5066239;28;20041;-66
2024/01/25 09:56:08;;;;;;;128.00;57.67;;;12.80;99.90;;;;;;5065944;28;20044;-66
2024/01/25 09:58:45;;;;;;;128.35;56.17;;;12.80;99.90;;;;;;5062082;28;20200;-66
2024/01/25 10:01:15;;;;;;;96.68;46.60;;;12.30;99.90;;;;;;5064237;28;20036;-66
2024/01/25 10:03:47;;;;;;;117.50;53.35;;;12.60;99.90;;;;;;5064190;28;20190;-66
2024/01/25 10:06:14;;;;;;;89.63;47.20;;;13.00;99.90;;;;;;5044645;28;20125;-66
2024/01/25 10:08:40;;;;;;;107.05;54.17;;;12.50;99.90;;;;;;5052332;28;20228;-66
2024/01/25 10:11:06;;;;;;;107.88;52.28;;;13.50;99.90;;;;;;5037296;28;20035;-67
2024/01/25 10:13:31;;;;;;;107.93;51.90;;;12.50;99.90;;;;;;5064272;28;20083;-66
2024/01/25 10:15:58;;;;;;;107.00;54.92;;;13.30;99.90;;;;;;5061777;28;20120;-66
2024/01/25 10:18:25;;;;;;;112.75;53.40;;;13.30;99.90;;;;;;5065645;28;20043;-67
2024/01/25 10:20:55;;;;;;;104.13;53.88;;;13.10;99.90;;;;;;5065663;28;20044;-66
2024/01/25 10:23:22;;;;;;;90.30;47.13;;;13.10;99.90;;;;;;5066291;28;20044;-67
2024/01/25 10:25:47;;;;;;;104.10;55.28;;;13.80;99.90;;;;;;5065280;28;20059;-67
2024/01/25 10:28:13;;;;;;;100.65;51.72;;;13.30;99.90;;;;;;5048463;28;20639;-67
2024/01/25 10:30:39;;;;;;;97.63;51.42;;;13.40;99.90;;;;;;5065802;28;20097;-67
2024/01/25 10:33:04;;;;;;;95.03;52.00;;;13.50;99.90;;;;;;5065868;28;20123;-67
2024/01/25 10:35:31;;;;;;;84.30;45.33;;;13.50;99.90;;;;;;5065262;28;20146;-67
2024/01/25 10:37:57;;;;;;;101.95;52.83;;;13.30;99.90;;;;;;5048818;28;20067;-67
2024/01/25 10:40:24;;;;;;;113.20;54.55;;;13.40;99.90;;;;;;5049368;28;20037;-67
2024/01/25 10:42:50;;;;;;;115.38;54.97;;;13.80;99.90;;;;;;5047076;28;20056;-68
2024/01/25 10:45:16;;;;;;;98.25;52.05;;;13.70;99.90;;;;;;5048442;28;20052;-67
2024/01/25 10:47:42;;;;;;;95.07;51.90;;;13.80;99.90;;;;;;5064209;28;20032;-67
2024/01/25 10:50:09;;;;;;;95.03;49.35;;;13.80;99.90;;;;;;5064932;28;20036;-67
2024/01/25 10:52:35;;;;;;;99.85;51.75;;;13.60;99.90;;;;;;5064892;28;20044;-67
2024/01/25 10:55:03;;;;;;;86.82;46.90;;;13.30;99.90;;;;;;5060049;28;20159;-67
2024/01/25 10:57:39;;;;;;;103.88;50.53;;;13.40;99.90;;;;;;5064213;28;20037;-68
2024/01/25 11:00:10;;;;;;;96.85;51.20;;;13.30;99.90;;;;;;5064827;28;20119;-67
2024/01/25 11:02:36;;;;;;;93.85;48.97;;;13.40;99.90;;;;;;5045924;28;20040;-67
2024/01/25 11:05:03;;;;;;;92.25;49.25;;;14.20;99.90;;;;;;5065589;28;20041;-65
2024/01/25 11:07:29;;;;;;;103.07;51.20;;;13.40;99.90;;;;;;5064315;28;20129;-66
2024/01/25 11:09:55;;;;;;;96.88;49.75;;;14.20;99.90;;;;;;5064981;28;20036;-65
2024/01/25 11:12:21;;;;;;;79.22;47.63;;;13.40;99.90;;;;;;5060964;28;20082;-65
2024/01/25 11:14:54;;;;;;;90.22;49.25;;;14.30;99.90;;;;;;5046442;28;20554;-65
2024/01/25 11:17:21;;;;;;;88.07;47.30;;;13.50;99.90;;;;;;5047038;28;20490;-66
2024/01/25 11:19:49;;;;;;;94.75;47.45;;;14.30;99.90;;;;;;5065288;28;20048;-65
2024/01/25 11:22:15;;;;;;;88.45;47.55;;;13.90;99.90;;;;;;5065488;28;20041;-65
2024/01/25 11:24:42;;;;;;;89.35;48.20;;;13.40;99.90;;;;;;5062476;28;20047;-66
2024/01/25 11:27:10;;;;;;;92.00;49.55;;;14.00;78.40;;;;;;5062608;28;20048;-65
2024/01/25 11:29:35;;;;;;;99.00;52.08;;;13.20;67.40;;;;;;5065263;28;20444;-66
2024/01/25 11:32:04;;;;;;;82.32;42.85;;;13.90;55.50;;;;;;5064717;28;20044;-64
2024/01/25 11:34:31;;;;;;;95.95;51.97;;;13.20;53.60;;;;;;5064655;28;20051;-65
2024/01/25 11:37:00;;;;;;;99.75;53.00;;;13.20;64.30;;;;;;5029217;28;20052;-64
2024/01/25 11:39:25;;;;;;;83.00;47.58;;;13.50;69.30;;;;;;5064680;28;20044;-65
2024/01/25 11:41:52;;;;;;;97.45;48.60;;;13.30;68.30;;;;;;5064347;28;20037;-65
2024/01/25 11:44:18;;;;;;;96.35;48.78;;;13.70;79.70;;;;;;5065055;28;20948;-65
2024/01/25 11:46:43;;;;;;;93.13;50.03;;;13.40;77.30;;;;;;5064663;28;20075;-64
2024/01/25 11:49:09;;;;;;;89.45;50.25;;;14.20;80.70;;;;;;5061311;28;20093;-65
2024/01/25 11:51:34;;;;;;;89.72;49.80;;;13.90;73.10;;;;;;5046776;28;20059;-64
2024/01/25 11:54:00;;;;;;;82.43;49.75;;;13.30;64.70;;;;;;5065333;28;20048;-64
2024/01/25 11:56:35;;;;;;;91.57;50.22;;;13.50;55.20;;;;;;5047165;28;20044;-65
2024/01/25 11:59:02;;;;;;;93.88;51.58;;;13.90;51.90;;;;;;5063244;28;20123;-65
2024/01/25 12:01:29;;;;;;;110.35;53.95;;;15.00;50.10;;;;;;5065371;28;20432;-65
2024/01/25 12:03:55;;;;;;;88.72;52.35;;;13.40;56.70;;;;;;5063217;28;20045;-65
2024/01/25 12:06:21;;;;;;;86.05;51.15;;;14.20;44.20;;;;;;5080304;28;20036;-65
2024/01/25 12:08:48;;;;;;;96.25;48.83;;;14.00;43.30;;;;;;5061859;28;20041;-65
2024/01/25 12:11:14;;;;;;;73.03;41.78;;;14.40;18.00;;;;;;5062978;28;20040;-64
2024/01/25 12:13:41;;;;;;;87.43;49.05;;;13.50;4.70;;;;;;5061369;28;20043;-64
2024/01/25 12:16:08;;;;;;;99.28;49.22;;;13.50;1.00;;;;;;5062369;28;20583;-66